Time;durP1;ratioP1;P1;durP2;ratioP2;P2;SDS_P1;SDS_P2;PMS_P1;PMS_P2;Temp;Humidity;BMP_temperature;BMP_pressure;BME280_temperature;BME280_humidity;BME280_pressure;Samples;Min_cycle;Max_cycle;Signal;HPM_P1;HPM_P2
2022/01/21 00:01:40;;;;;;;7.73;1.80;;;25.00;56.80;;;;;;5032911;28;20231;-79
2022/01/21 00:04:10;;;;;;;7.10;1.93;;;24.90;55.80;;;;;;5033066;28;20184;-78
2022/01/21 00:06:38;;;;;;;10.63;1.70;;;24.70;55.90;;;;;;5032577;28;20187;-78
2022/01/21 00:09:06;;;;;;;8.50;1.80;;;24.80;55.50;;;;;;5032192;28;20212;-82
2022/01/21 00:11:35;;;;;;;13.13;2.37;;;24.90;56.80;;;;;;5034055;28;20189;-79
2022/01/21 00:14:03;;;;;;;12.17;2.10;;;25.00;57.00;;;;;;5031075;28;20211;-79
2022/01/21 00:16:31;;;;;;;6.27;2.00;;;24.80;57.40;;;;;;5033510;28;20180;-76
2022/01/21 00:19:13;;;;;;;6.47;2.13;;;25.00;56.00;;;;;;5032989;28;20216;-78
2022/01/21 00:30:13;;;;;;;14.73;2.57;;;25.50;55.00;;;;;;5033423;28;20191;-77
2022/01/21 00:32:43;;;;;;;8.93;2.60;;;25.60;54.30;;;;;;5031890;28;20199;-80
2022/01/21 00:35:11;;;;;;;7.27;1.60;;;25.80;53.30;;;;;;5032610;28;20263;-78
2022/01/21 00:37:39;;;;;;;6.87;1.63;;;25.90;50.60;;;;;;5033286;28;20177;-79
2022/01/21 00:40:09;;;;;;;7.40;1.33;;;25.80;50.80;;;;;;5031541;28;20267;-80
2022/01/21 00:45:13;;;;;;;9.93;2.00;;;25.30;52.60;;;;;;5034631;28;20188;-80
2022/01/21 00:47:42;;;;;;;7.00;1.50;;;25.30;54.20;;;;;;5041699;28;20658;-77
2022/01/21 00:50:10;;;;;;;7.20;1.53;;;25.20;53.90;;;;;;5036111;28;20199;-77
2022/01/21 00:52:38;;;;;;;10.97;1.37;;;25.00;55.30;;;;;;5032866;28;20180;-75
2022/01/21 00:55:07;;;;;;;8.53;1.67;;;25.00;55.00;;;;;;5030404;28;20200;-75
2022/01/21 00:57:35;;;;;;;8.07;1.50;;;25.00;55.20;;;;;;5032683;28;20541;-74
2022/01/21 01:00:04;;;;;;;5.63;1.47;;;25.10;54.80;;;;;;5031993;28;20737;-81
2022/01/21 01:02:31;;;;;;;8.07;2.40;;;25.30;53.80;;;;;;5030221;28;20188;-82
2022/01/21 01:04:59;;;;;;;8.60;2.27;;;25.20;56.40;;;;;;5032600;28;20180;-81
2022/01/21 01:07:26;;;;;;;5.60;2.07;;;25.10;57.90;;;;;;5032906;28;20311;-82
2022/01/21 01:09:56;;;;;;;9.70;2.00;;;24.80;57.80;;;;;;5032988;28;20177;-81
2022/01/21 01:19:56;;;;;;;8.37;2.00;;;24.30;58.50;;;;;;5031187;28;20728;-82
2022/01/21 01:20:49;;;;;;;9.77;1.70;;;24.70;57.80;;;;;;5032886;28;20222;-85
2022/01/21 01:28:55;;;;;;;10.97;2.20;;;24.90;58.50;;;;;;5031104;28;20203;-78
2022/01/21 01:31:22;;;;;;;11.40;2.27;;;24.70;59.70;;;;;;5024654;28;20670;-74
2022/01/21 01:33:49;;;;;;;10.93;2.10;;;24.40;60.50;;;;;;5030714;28;20219;-78
2022/01/21 01:36:17;;;;;;;10.50;2.87;;;24.40;60.00;;;;;;5032006;28;20192;-83
2022/01/21 01:41:21;;;;;;;11.07;2.27;;;24.20;60.90;;;;;;5031970;28;20590;-79
2022/01/21 01:51:53;;;;;;;8.77;2.10;;;26.00;56.20;;;;;;5029689;28;20188;-83
2022/01/21 01:54:21;;;;;;;9.60;2.00;;;26.40;54.00;;;;;;5030368;28;20318;-83
2022/01/21 01:56:54;;;;;;;5.67;1.40;;;26.20;56.20;;;;;;5063859;28;20271;-80
2022/01/21 01:59:23;;;;;;;7.80;1.43;;;25.80;54.90;;;;;;5031616;28;20334;-86
2022/01/21 02:02:14;;;;;;;8.20;1.87;;;25.60;56.30;;;;;;5032050;28;20179;-82
2022/01/21 02:04:43;;;;;;;8.17;1.80;;;25.80;56.90;;;;;;5031775;28;20176;-79
2022/01/21 02:07:11;;;;;;;8.13;1.93;;;25.30;56.30;;;;;;5030694;28;20169;-79
2022/01/21 02:09:39;;;;;;;7.43;1.80;;;25.50;56.70;;;;;;5032119;28;20204;-79
2022/01/21 02:12:07;;;;;;;8.77;1.90;;;25.50;56.20;;;;;;5031615;28;20183;-77
2022/01/21 02:14:37;;;;;;;8.23;2.07;;;25.30;56.30;;;;;;5031985;28;20196;-77
2022/01/21 02:21:29;;;;;;;10.83;2.63;;;25.30;56.70;;;;;;5031645;28;20240;-77
2022/01/21 02:22:43;;;;;;;7.80;2.77;;;24.80;56.90;;;;;;5035505;28;20673;-78
2022/01/21 02:25:20;;;;;;;7.13;1.70;;;24.80;56.90;;;;;;5033687;28;20180;-76
2022/01/21 02:27:51;;;;;;;10.13;1.97;;;24.90;57.00;;;;;;5030104;28;20180;-76
2022/01/21 02:30:22;;;;;;;6.97;1.60;;;25.00;56.70;;;;;;5024157;28;20192;-84
2022/01/21 02:32:52;;;;;;;9.87;1.97;;;25.20;56.70;;;;;;5031395;28;20322;-74
2022/01/21 02:35:22;;;;;;;6.90;1.97;;;25.20;57.10;;;;;;5030950;28;20193;-75
2022/01/21 02:37:50;;;;;;;12.30;1.97;;;25.20;57.10;;;;;;5030854;28;20677;-78
2022/01/21 02:40:18;;;;;;;11.60;2.30;;;25.00;57.20;;;;;;5030188;28;20354;-75
2022/01/21 02:42:46;;;;;;;7.63;2.17;;;24.80;58.20;;;;;;5031759;28;20211;-74
2022/01/21 02:45:15;;;;;;;11.80;2.60;;;24.40;58.60;;;;;;5034479;28;20335;-75
2022/01/21 02:47:44;;;;;;;8.53;2.00;;;24.30;59.70;;;;;;5032302;28;20243;-74
2022/01/21 02:50:12;;;;;;;8.43;2.23;;;24.30;60.30;;;;;;5034631;28;20647;-81
2022/01/21 02:52:55;;;;;;;13.80;2.30;;;24.40;60.60;;;;;;5035179;28;20181;-76
2022/01/21 02:55:24;;;;;;;10.07;1.93;;;24.70;60.00;;;;;;5034321;28;20231;-74
2022/01/21 02:57:51;;;;;;;10.73;2.20;;;24.70;59.40;;;;;;5034553;28;20192;-75
2022/01/21 03:00:19;;;;;;;8.00;2.27;;;24.60;60.20;;;;;;5034262;28;20212;-77
2022/01/21 03:02:46;;;;;;;11.30;2.27;;;24.70;60.40;;;;;;5037368;28;20264;-75
2022/01/21 03:05:15;;;;;;;11.73;2.00;;;24.80;59.80;;;;;;5036347;28;20195;-74
2022/01/21 03:07:43;;;;;;;10.37;2.27;;;25.30;59.20;;;;;;5036300;28;20193;-74
2022/01/21 03:10:11;;;;;;;9.57;2.00;;;25.20;58.70;;;;;;5034453;28;20195;-75
2022/01/21 03:12:38;;;;;;;9.03;2.20;;;25.10;59.40;;;;;;5033670;28;20256;-77
2022/01/21 03:15:07;;;;;;;9.90;1.87;;;25.10;60.50;;;;;;5045214;28;20252;-76
2022/01/21 03:17:35;;;;;;;12.47;2.23;;;25.30;59.60;;;;;;5047805;28;20184;-73
2022/01/21 03:20:04;;;;;;;11.90;1.80;;;25.40;59.10;;;;;;5047575;28;20200;-76
2022/01/21 03:22:31;;;;;;;12.83;2.43;;;25.40;59.10;;;;;;5061995;28;20211;-75
2022/01/21 03:24:59;;;;;;;11.90;1.90;;;25.50;59.40;;;;;;5045889;28;20248;-75
2022/01/21 03:27:26;;;;;;;8.40;1.73;;;25.80;57.70;;;;;;5046006;28;20188;-76
2022/01/21 03:29:53;;;;;;;9.30;1.70;;;25.80;57.30;;;;;;5035952;28;20193;-73
2022/01/21 03:32:21;;;;;;;7.73;1.80;;;25.80;57.10;;;;;;5035532;28;20184;-77
2022/01/21 03:34:49;;;;;;;7.50;1.80;;;26.20;55.90;;;;;;5036267;28;20180;-74
2022/01/21 03:37:16;;;;;;;8.00;1.50;;;26.40;54.70;;;;;;5035772;28;20191;-74
2022/01/21 03:39:45;;;;;;;9.67;2.07;;;26.30;54.30;;;;;;5032540;28;20274;-73
2022/01/21 03:42:13;;;;;;;12.00;2.30;;;26.60;54.80;;;;;;5034110;28;20197;-77
2022/01/21 03:44:40;;;;;;;7.37;1.90;;;26.10;55.30;;;;;;5032781;28;20663;-76
2022/01/21 03:47:07;;;;;;;6.00;1.77;;;26.30;55.40;;;;;;5033838;28;20275;-74
2022/01/21 03:49:40;;;;;;;11.93;2.27;;;26.10;55.40;;;;;;5034440;28;20694;-78
2022/01/21 03:52:10;;;;;;;10.40;2.30;;;25.30;57.70;;;;;;5034003;28;20235;-77
2022/01/21 03:54:37;;;;;;;9.47;2.37;;;24.90;59.90;;;;;;5033742;28;20658;-77
2022/01/21 03:57:08;;;;;;;11.33;2.00;;;24.80;63.10;;;;;;5031008;28;20189;-75
2022/01/21 03:59:35;;;;;;;10.17;2.00;;;24.40;68.80;;;;;;5039183;28;20295;-76
2022/01/21 04:02:06;;;;;;;10.67;2.10;;;23.80;71.90;;;;;;5034475;28;20185;-73
2022/01/21 04:04:34;;;;;;;10.47;2.70;;;23.40;71.70;;;;;;5029684;28;20184;-72
2022/01/21 04:07:03;;;;;;;13.53;3.27;;;22.70;72.50;;;;;;5033185;28;20180;-74
2022/01/21 04:09:31;;;;;;;8.13;2.30;;;22.10;73.70;;;;;;5030261;28;20176;-73
2022/01/21 04:11:58;;;;;;;11.60;2.17;;;22.20;74.60;;;;;;5032598;28;20237;-75
2022/01/21 04:14:25;;;;;;;6.60;1.67;;;21.90;75.30;;;;;;5032924;28;20665;-77
2022/01/21 04:16:53;;;;;;;10.97;2.03;;;22.00;74.50;;;;;;5033528;28;20627;-77
2022/01/21 04:19:20;;;;;;;8.60;2.30;;;21.90;75.00;;;;;;5033115;28;20185;-75
2022/01/21 04:21:47;;;;;;;6.13;2.07;;;22.20;72.90;;;;;;5033411;28;20212;-76
2022/01/21 04:24:16;;;;;;;13.13;1.90;;;22.50;72.90;;;;;;5031827;28;20195;-76
2022/01/21 04:26:43;;;;;;;6.50;1.70;;;22.60;73.50;;;;;;5032479;28;20192;-77
2022/01/21 04:29:10;;;;;;;11.23;2.20;;;22.80;73.10;;;;;;5029616;28;20643;-75
2022/01/21 04:31:38;;;;;;;8.73;2.03;;;22.90;72.40;;;;;;5029315;28;20177;-76
2022/01/21 04:34:05;;;;;;;10.73;2.33;;;22.90;72.40;;;;;;5032538;28;20177;-76
2022/01/21 04:36:34;;;;;;;8.70;2.00;;;23.40;70.50;;;;;;5033250;28;20179;-77
2022/01/21 04:39:03;;;;;;;9.47;1.70;;;23.80;67.40;;;;;;5032665;28;20260;-73
2022/01/21 04:50:01;;;;;;;10.87;2.17;;;24.10;68.00;;;;;;5040831;28;20729;-76
2022/01/21 04:52:28;;;;;;;13.10;2.23;;;23.90;69.10;;;;;;5035881;28;20274;-77
2022/01/21 04:54:56;;;;;;;11.37;2.30;;;23.90;68.70;;;;;;5032700;28;20208;-79
2022/01/21 04:57:23;;;;;;;8.70;1.70;;;23.70;69.70;;;;;;5031830;28;20181;-75
2022/01/21 04:59:50;;;;;;;10.93;1.90;;;23.70;69.30;;;;;;5032581;28;20200;-79
2022/01/21 05:02:22;;;;;;;8.70;2.00;;;23.60;69.50;;;;;;5032420;28;20282;-77
2022/01/21 05:04:49;;;;;;;11.67;2.30;;;23.60;68.80;;;;;;5029557;28;20655;-76
2022/01/21 05:07:21;;;;;;;11.53;2.17;;;23.10;69.50;;;;;;5032060;28;20631;-74
2022/01/21 05:09:49;;;;;;;6.97;1.73;;;23.10;70.20;;;;;;5031325;28;20216;-76
2022/01/21 05:12:20;;;;;;;8.13;2.03;;;23.20;70.10;;;;;;5032371;28;20188;-75
2022/01/21 05:15:07;;;;;;;9.33;1.70;;;23.00;70.10;;;;;;5032078;28;20539;-74
2022/01/21 05:17:43;;;;;;;6.30;1.33;;;23.10;68.60;;;;;;5031111;28;20290;-73
2022/01/21 05:20:11;;;;;;;9.30;1.83;;;23.10;66.10;;;;;;5029796;28;20230;-78
2022/01/21 05:22:39;;;;;;;6.53;1.33;;;23.10;65.90;;;;;;5032172;28;20180;-73
2022/01/21 05:25:08;;;;;;;6.83;1.73;;;23.30;64.40;;;;;;5031051;28;20227;-78
2022/01/21 05:27:36;;;;;;;5.73;1.10;;;23.50;65.00;;;;;;5032076;28;20594;-76
2022/01/21 05:30:04;;;;;;;5.83;1.50;;;23.60;66.20;;;;;;5029996;28;20180;-76
2022/01/21 05:32:32;;;;;;;7.77;1.50;;;23.20;67.10;;;;;;5033503;28;20181;-73
2022/01/21 05:34:59;;;;;;;7.33;1.77;;;23.30;67.20;;;;;;5038980;28;20256;-73
2022/01/21 05:37:26;;;;;;;9.00;1.90;;;23.10;67.00;;;;;;5034631;28;20269;-72
2022/01/21 05:39:54;;;;;;;10.90;2.23;;;23.20;68.20;;;;;;5029355;28;20603;-71
2022/01/21 05:42:23;;;;;;;12.30;2.70;;;22.90;70.20;;;;;;5031660;28;20185;-78
2022/01/21 05:47:18;;;;;;;7.27;1.73;;;22.20;77.00;;;;;;5029451;28;20196;-80
2022/01/21 05:49:45;;;;;;;8.93;1.63;;;22.30;76.20;;;;;;5031086;28;20173;-76
2022/01/21 05:52:17;;;;;;;6.03;1.57;;;22.40;75.40;;;;;;5030085;28;20188;-76
2022/01/21 05:54:49;;;;;;;7.37;2.07;;;22.60;74.20;;;;;;5032408;28;20537;-78
2022/01/21 05:57:18;;;;;;;7.70;3.10;;;22.60;74.50;;;;;;5031474;28;20233;-78
2022/01/21 05:59:49;;;;;;;8.43;2.83;;;22.80;74.00;;;;;;5028339;28;20189;-78
2022/01/21 06:02:17;;;;;;;13.57;6.37;;;22.90;73.50;;;;;;5032221;28;20639;-78
2022/01/21 06:04:49;;;;;;;10.20;2.63;;;22.60;74.60;;;;;;5031882;28;20237;-78
2022/01/21 06:07:17;;;;;;;7.33;1.40;;;22.30;75.20;;;;;;5047123;28;20748;-75
2022/01/21 06:09:45;;;;;;;10.43;2.23;;;22.00;76.20;;;;;;5032209;28;20631;-80
2022/01/21 06:12:12;;;;;;;10.73;1.93;;;22.00;77.60;;;;;;5030312;28;20204;-76
2022/01/21 06:14:40;;;;;;;10.60;1.90;;;21.90;78.90;;;;;;5031670;28;20184;-74
2022/01/21 06:17:10;;;;;;;5.70;2.10;;;22.00;79.00;;;;;;5032812;28;20188;-74
2022/01/21 06:19:38;;;;;;;7.13;1.80;;;22.00;78.20;;;;;;5034575;28;20223;-77
2022/01/21 06:22:06;;;;;;;8.47;2.10;;;22.20;78.00;;;;;;5035797;28;20586;-77
2022/01/21 06:24:34;;;;;;;6.40;2.03;;;22.30;77.40;;;;;;5035011;28;20164;-78
2022/01/21 06:27:03;;;;;;;8.37;2.03;;;22.40;76.50;;;;;;5035439;28;20180;-77
2022/01/21 06:29:31;;;;;;;6.97;1.67;;;22.60;75.80;;;;;;5046959;28;20174;-78
2022/01/21 06:31:59;;;;;;;11.97;2.83;;;22.80;75.20;;;;;;5035273;28;20260;-74
2022/01/21 06:34:26;;;;;;;9.70;2.10;;;22.90;74.50;;;;;;5035479;28;20184;-75
2022/01/21 06:36:54;;;;;;;8.23;1.53;;;22.90;73.20;;;;;;5035662;28;20549;-77
2022/01/21 06:39:21;;;;;;;8.10;1.80;;;22.90;72.80;;;;;;5034059;28;20224;-73
2022/01/21 06:41:49;;;;;;;8.50;1.83;;;22.80;72.70;;;;;;5032406;28;20659;-72
2022/01/21 06:44:17;;;;;;;7.33;1.70;;;22.80;72.20;;;;;;5034419;28;20658;-72
2022/01/21 06:46:45;;;;;;;10.77;2.00;;;22.50;72.60;;;;;;5035160;28;20203;-72
2022/01/21 06:49:12;;;;;;;7.63;1.73;;;22.50;73.00;;;;;;5035074;28;20238;-77
2022/01/21 06:51:39;;;;;;;7.57;2.23;;;22.50;72.90;;;;;;5035443;28;20180;-79
2022/01/21 06:54:06;;;;;;;8.00;1.87;;;22.60;72.10;;;;;;5035165;28;20189;-77
2022/01/21 06:56:34;;;;;;;9.57;1.83;;;22.50;72.40;;;;;;5034147;28;20246;-77
2022/01/21 06:59:01;;;;;;;6.90;1.77;;;22.60;72.70;;;;;;5034633;28;20272;-77
2022/01/21 07:01:28;;;;;;;7.60;1.60;;;22.50;73.10;;;;;;5034715;28;20733;-81
2022/01/21 07:03:56;;;;;;;5.47;1.30;;;22.60;72.60;;;;;;5032712;28;20216;-77
2022/01/21 07:06:23;;;;;;;8.50;1.60;;;22.40;73.10;;;;;;5034140;28;20185;-80
2022/01/21 07:08:50;;;;;;;4.73;1.50;;;22.60;73.10;;;;;;5036844;28;20220;-75
2022/01/21 07:11:18;;;;;;;12.90;2.27;;;22.50;72.60;;;;;;5038828;28;20533;-74
2022/01/21 07:13:45;;;;;;;8.50;1.90;;;22.20;73.30;;;;;;5034020;28;20183;-78
2022/01/21 07:16:13;;;;;;;11.00;1.80;;;22.30;73.10;;;;;;5032991;28;20192;-72
2022/01/21 07:18:40;;;;;;;8.70;2.03;;;22.10;72.20;;;;;;5033928;28;20193;-74
2022/01/21 07:21:08;;;;;;;9.67;2.30;;;22.10;72.60;;;;;;5033941;28;20554;-73
2022/01/21 07:23:35;;;;;;;3.80;1.53;;;22.20;72.20;;;;;;5033843;28;20188;-76
2022/01/21 07:26:04;;;;;;;6.53;1.57;;;22.30;71.50;;;;;;5033959;28;20184;-76
2022/01/21 07:28:33;;;;;;;6.20;1.80;;;22.40;71.10;;;;;;5032550;28;20191;-77
2022/01/21 07:31:01;;;;;;;9.03;1.63;;;22.30;71.50;;;;;;5033095;28;20188;-76
2022/01/21 07:33:28;;;;;;;6.47;1.57;;;22.50;71.40;;;;;;5033615;28;20619;-75
2022/01/21 07:35:56;;;;;;;8.50;1.60;;;22.40;71.10;;;;;;5033977;28;20211;-75
2022/01/21 07:38:23;;;;;;;5.87;1.77;;;22.30;72.30;;;;;;5031871;28;20598;-77
2022/01/21 07:40:50;;;;;;;6.73;1.87;;;22.30;72.50;;;;;;5030420;28;20228;-77
2022/01/21 07:43:18;;;;;;;6.93;1.37;;;22.30;72.50;;;;;;5033744;28;20185;-74
2022/01/21 07:45:45;;;;;;;9.67;1.67;;;22.30;72.70;;;;;;5033913;28;20211;-77
2022/01/21 07:48:12;;;;;;;8.67;1.87;;;22.30;72.50;;;;;;5032304;28;20188;-74
2022/01/21 07:50:40;;;;;;;6.70;1.80;;;22.30;73.00;;;;;;5033527;28;20187;-77
2022/01/21 07:53:07;;;;;;;7.70;1.80;;;22.30;73.30;;;;;;5032646;28;20655;-79
2022/01/21 07:55:35;;;;;;;7.43;1.43;;;22.30;73.00;;;;;;5034537;28;20180;-79
2022/01/21 07:58:03;;;;;;;8.37;2.10;;;22.30;72.60;;;;;;5033817;28;20181;-76
2022/01/21 08:00:31;;;;;;;13.50;2.13;;;22.30;72.70;;;;;;5033466;28;20721;-74
2022/01/21 08:02:59;;;;;;;9.17;1.90;;;22.30;73.00;;;;;;5030606;28;20180;-75
2022/01/21 08:05:31;;;;;;;4.23;1.70;;;22.10;74.10;;;;;;5032303;28;20188;-74
2022/01/21 08:07:58;;;;;;;10.00;2.30;;;22.10;74.40;;;;;;5031718;28;20173;-76
2022/01/21 08:10:26;;;;;;;11.10;2.23;;;22.10;74.10;;;;;;5033141;28;20180;-75
2022/01/21 08:12:53;;;;;;;8.60;2.10;;;22.10;73.90;;;;;;5031114;28;20180;-75
2022/01/21 08:15:20;;;;;;;6.13;1.77;;;22.10;74.00;;;;;;5032375;28;20212;-75
2022/01/21 08:17:48;;;;;;;6.43;1.63;;;22.10;73.80;;;;;;5028093;28;20210;-74
2022/01/21 08:20:15;;;;;;;9.33;2.37;;;22.00;73.80;;;;;;5032183;28;20220;-77
2022/01/21 08:22:42;;;;;;;9.93;2.03;;;21.90;74.50;;;;;;5033122;28;20189;-77
2022/01/21 08:25:11;;;;;;;6.67;2.00;;;21.80;74.60;;;;;;5028716;28;20198;-78
2022/01/21 08:27:38;;;;;;;11.10;2.10;;;21.80;74.90;;;;;;5032140;28;20208;-73
2022/01/21 08:30:07;;;;;;;6.53;1.80;;;21.70;75.30;;;;;;5032414;28;20176;-79
2022/01/21 08:32:36;;;;;;;10.87;2.60;;;21.80;75.00;;;;;;5032616;28;20226;-73
2022/01/21 08:35:04;;;;;;;10.40;2.33;;;21.70;75.20;;;;;;5030671;28;20655;-74
2022/01/21 08:37:32;;;;;;;6.17;1.77;;;21.70;74.90;;;;;;5033183;28;20185;-77
2022/01/21 08:40:00;;;;;;;9.13;2.03;;;21.60;74.60;;;;;;5031292;28;20680;-75
2022/01/21 08:42:27;;;;;;;10.77;2.20;;;21.60;74.70;;;;;;5029092;28;20180;-75
2022/01/21 08:44:54;;;;;;;7.30;1.63;;;21.60;74.60;;;;;;5039121;28;20207;-75
2022/01/21 08:47:22;;;;;;;8.77;1.83;;;21.50;74.60;;;;;;5040577;28;20597;-72
2022/01/21 08:49:51;;;;;;;8.20;2.00;;;21.50;74.30;;;;;;5032980;28;20553;-73
2022/01/21 08:52:20;;;;;;;5.50;1.40;;;21.50;74.30;;;;;;5032698;28;20184;-75
2022/01/21 08:54:49;;;;;;;7.50;2.07;;;21.40;74.50;;;;;;5032364;28;20267;-75
2022/01/21 08:57:17;;;;;;;9.80;2.17;;;21.40;74.70;;;;;;5033076;28;20238;-76
2022/01/21 08:59:46;;;;;;;8.73;2.33;;;21.30;75.00;;;;;;5032321;28;20180;-76
2022/01/21 09:02:13;;;;;;;8.97;1.97;;;21.30;75.10;;;;;;5032245;28;20191;-76
2022/01/21 09:04:40;;;;;;;11.83;2.33;;;21.30;75.20;;;;;;5032170;28;21511;-73
2022/01/21 09:07:08;;;;;;;9.67;2.20;;;21.40;75.20;;;;;;5030804;28;20192;-74
2022/01/21 09:09:35;;;;;;;8.33;1.80;;;21.40;76.10;;;;;;5030878;28;20195;-75
2022/01/21 09:12:03;;;;;;;11.43;2.30;;;21.30;75.90;;;;;;5032594;28;20575;-74
2022/01/21 09:14:33;;;;;;;10.07;1.97;;;21.30;76.00;;;;;;5028605;28;20684;-76
2022/01/21 09:20:22;;;;;;;7.37;1.87;;;21.30;76.70;;;;;;5031513;28;20211;-76
2022/01/21 09:22:49;;;;;;;11.30;2.20;;;21.20;76.90;;;;;;5032121;28;20781;-75
2022/01/21 09:25:16;;;;;;;8.47;1.83;;;21.30;77.10;;;;;;5031779;28;20231;-77
2022/01/21 09:27:44;;;;;;;7.13;2.00;;;21.30;77.20;;;;;;5032239;28;20181;-77
2022/01/21 09:30:12;;;;;;;8.73;2.07;;;21.30;77.00;;;;;;5029992;28;20192;-81
2022/01/21 09:32:39;;;;;;;7.23;1.97;;;21.20;77.30;;;;;;5032204;28;20623;-76
2022/01/21 09:35:07;;;;;;;8.77;1.83;;;21.20;77.00;;;;;;5032207;28;20215;-78
2022/01/21 09:37:34;;;;;;;9.40;1.97;;;21.20;77.00;;;;;;5032397;28;20191;-78
2022/01/21 09:40:02;;;;;;;8.30;2.00;;;21.20;76.60;;;;;;5030887;28;20237;-77
2022/01/21 09:42:33;;;;;;;8.23;1.77;;;21.20;76.80;;;;;;5029599;28;20177;-77
2022/01/21 09:45:04;;;;;;;8.53;2.13;;;21.10;76.80;;;;;;5030048;28;20234;-78
2022/01/21 09:47:32;;;;;;;7.47;1.83;;;21.10;77.00;;;;;;5025234;28;20302;-78
2022/01/21 09:50:00;;;;;;;9.73;2.87;;;21.10;77.20;;;;;;5031712;28;20230;-78
2022/01/21 09:52:28;;;;;;;10.63;2.30;;;21.10;77.30;;;;;;5031702;28;20184;-85
2022/01/21 09:54:55;;;;;;;11.10;2.70;;;21.10;79.20;;;;;;5030515;28;20676;-82
2022/01/21 09:57:24;;;;;;;12.40;2.53;;;21.00;81.30;;;;;;5031902;28;20173;-80
2022/01/21 09:59:53;;;;;;;9.60;2.27;;;20.90;83.30;;;;;;5030893;28;20180;-82
2022/01/21 10:02:26;;;;;;;9.37;1.97;;;20.90;82.10;;;;;;5031046;28;20206;-82
2022/01/21 10:04:56;;;;;;;6.37;1.57;;;20.70;83.70;;;;;;5030282;28;20543;-81
2022/01/21 10:07:24;;;;;;;8.03;1.80;;;20.60;82.70;;;;;;5031011;28;20188;-83
2022/01/21 10:09:53;;;;;;;11.80;2.20;;;20.40;82.60;;;;;;5031909;28;20255;-85
2022/01/21 10:12:22;;;;;;;6.73;1.93;;;20.30;81.90;;;;;;5032411;28;20184;-82
2022/01/21 10:14:50;;;;;;;8.43;2.07;;;20.20;82.90;;;;;;5032982;28;20631;-82
2022/01/21 10:17:17;;;;;;;6.50;1.73;;;20.20;84.60;;;;;;5034393;28;20267;-83
2022/01/21 10:19:48;;;;;;;8.67;2.10;;;20.10;84.80;;;;;;5041805;28;20192;-82
2022/01/21 10:22:25;;;;;;;5.40;1.53;;;20.00;85.60;;;;;;5037846;28;20203;-81
2022/01/21 10:24:57;;;;;;;8.43;1.80;;;19.90;84.80;;;;;;5029678;28;20181;-81
2022/01/21 10:27:30;;;;;;;7.47;2.00;;;19.90;85.70;;;;;;5047847;28;20658;-83
2022/01/21 10:29:58;;;;;;;9.73;2.47;;;19.90;86.30;;;;;;5029662;28;20177;-78
2022/01/21 10:32:37;;;;;;;10.47;1.90;;;19.80;86.80;;;;;;5032114;28;20177;-81
2022/01/21 10:35:18;;;;;;;6.37;1.70;;;19.80;87.60;;;;;;5031212;28;20643;-78
2022/01/21 10:37:45;;;;;;;12.30;2.10;;;19.80;88.10;;;;;;5031752;28;20190;-78
2022/01/21 10:40:15;;;;;;;11.13;2.13;;;19.80;87.80;;;;;;5031278;28;20224;-78
2022/01/21 10:42:42;;;;;;;9.63;2.23;;;19.70;87.60;;;;;;5030983;28;20188;-77
2022/01/21 10:45:12;;;;;;;7.73;2.30;;;19.70;88.00;;;;;;5031121;28;20607;-77
2022/01/21 10:47:46;;;;;;;7.20;2.00;;;19.70;87.80;;;;;;5031350;28;20306;-80
2022/01/21 10:50:24;;;;;;;6.70;2.10;;;19.70;87.20;;;;;;5030919;28;20184;-77
2022/01/21 10:52:53;;;;;;;10.50;2.73;;;19.70;87.00;;;;;;5031346;28;20181;-82
2022/01/21 10:55:38;;;;;;;10.07;2.33;;;19.70;87.70;;;;;;5030898;28;20177;-82
2022/01/21 10:58:18;;;;;;;9.03;2.70;;;19.70;88.10;;;;;;5027887;28;20234;-83
2022/01/21 11:01:11;;;;;;;15.70;2.30;;;19.70;89.40;;;;;;5031350;28;20208;-81
2022/01/21 11:04:00;;;;;;;10.53;2.53;;;19.70;89.40;;;;;;5029377;28;20173;-77
2022/01/21 11:06:37;;;;;;;14.83;2.63;;;19.70;89.30;;;;;;5033033;28;20259;-78
2022/01/21 11:09:25;;;;;;;12.63;2.30;;;19.70;89.60;;;;;;5034896;28;20184;-77
2022/01/21 11:12:14;;;;;;;10.97;2.40;;;19.70;89.10;;;;;;5035499;28;20184;-77
2022/01/21 11:15:03;;;;;;;9.60;2.97;;;19.70;89.10;;;;;;5028708;28;20197;-78
2022/01/21 11:17:31;;;;;;;7.90;2.87;;;19.60;89.30;;;;;;5033507;28;20227;-77
2022/01/21 11:23:22;;;;;;;11.13;2.27;;;19.50;89.10;;;;;;5033519;28;20556;-78
2022/01/21 11:26:09;;;;;;;8.60;1.93;;;19.40;88.90;;;;;;5034291;28;20548;-77
2022/01/21 11:28:49;;;;;;;14.03;2.40;;;19.40;89.30;;;;;;5034795;28;20181;-78
2022/01/21 11:31:22;;;;;;;6.80;2.03;;;19.30;89.10;;;;;;5031009;28;20188;-79
2022/01/21 11:33:50;;;;;;;15.73;2.30;;;19.30;89.30;;;;;;5031540;28;20520;-76
2022/01/21 11:36:18;;;;;;;14.20;2.60;;;19.30;90.30;;;;;;5032805;28;20843;-78
2022/01/21 11:38:48;;;;;;;7.53;2.23;;;19.30;89.80;;;;;;5034470;28;20191;-80
2022/01/21 11:41:16;;;;;;;10.57;2.90;;;19.30;89.80;;;;;;5034335;28;20216;-84
2022/01/21 11:43:52;;;;;;;7.13;2.20;;;19.30;90.20;;;;;;5033833;28;20184;-80
2022/01/21 11:46:39;;;;;;;12.80;2.80;;;19.30;90.10;;;;;;5030157;28;20199;-80
2022/01/21 11:52:31;;;;;;;6.93;2.00;;;19.40;89.60;;;;;;5037909;28;20180;-82
2022/01/21 11:54:58;;;;;;;9.60;2.80;;;19.40;89.10;;;;;;5049203;28;20176;-83
2022/01/21 11:57:31;;;;;;;8.70;2.00;;;19.50;89.30;;;;;;5055826;28;20205;-82
2022/01/21 12:00:07;;;;;;;10.13;2.13;;;19.50;89.50;;;;;;5036137;28;20589;-81
2022/01/21 12:02:38;;;;;;;9.60;2.27;;;19.50;89.70;;;;;;5034806;28;20172;-82
2022/01/21 12:05:11;;;;;;;9.67;2.30;;;19.50;89.60;;;;;;5032116;28;20185;-82
2022/01/21 12:07:43;;;;;;;9.10;2.03;;;19.50;89.10;;;;;;5029002;28;20216;-82
2022/01/21 12:10:25;;;;;;;9.57;1.90;;;19.50;88.70;;;;;;5033580;28;20188;-81
2022/01/21 12:13:04;;;;;;;10.97;2.13;;;19.40;88.50;;;;;;5029534;28;20191;-82
2022/01/21 12:21:05;;;;;;;10.50;2.00;;;19.50;88.80;;;;;;5032963;28;20220;-81
2022/01/21 12:23:53;;;;;;;9.57;2.57;;;19.50;89.00;;;;;;5033729;28;20187;-82
2022/01/21 12:26:29;;;;;;;8.63;2.50;;;19.50;89.10;;;;;;5033964;28;20191;-82
2022/01/21 12:28:59;;;;;;;8.57;2.23;;;19.50;89.10;;;;;;5031188;28;20267;-80
2022/01/21 12:31:49;;;;;;;11.83;2.10;;;19.50;89.10;;;;;;5030064;28;20655;-81
2022/01/21 12:34:17;;;;;;;10.17;2.07;;;19.50;89.40;;;;;;5033649;28;20212;-80
2022/01/21 12:37:00;;;;;;;11.37;2.70;;;19.60;88.50;;;;;;5033487;28;20216;-80
2022/01/21 12:40:03;;;;;;;15.20;2.03;;;19.60;88.80;;;;;;5026956;28;20213;-80
2022/01/21 12:42:35;;;;;;;11.73;2.20;;;19.70;88.20;;;;;;5011286;28;20212;-81
2022/01/21 12:45:08;;;;;;;12.87;2.40;;;19.70;88.10;;;;;;5025437;28;20205;-81
2022/01/21 12:47:41;;;;;;;13.77;1.97;;;19.70;87.90;;;;;;5027886;28;20539;-83
2022/01/21 12:50:37;;;;;;;13.27;1.73;;;19.80;88.10;;;;;;5033024;28;20580;-81
2022/01/21 12:53:25;;;;;;;9.73;1.90;;;19.70;87.40;;;;;;5046809;28;20192;-84
2022/01/21 12:56:04;;;;;;;11.87;1.97;;;19.80;87.80;;;;;;5033352;28;20180;-82
2022/01/21 12:58:39;;;;;;;7.93;1.70;;;19.80;87.70;;;;;;5033181;28;20195;-84
2022/01/21 13:01:10;;;;;;;16.13;2.10;;;19.80;87.30;;;;;;5032897;28;20223;-87
2022/01/21 13:03:44;;;;;;;9.80;2.47;;;19.80;87.90;;;;;;5033009;28;20205;-85
2022/01/21 13:06:20;;;;;;;8.30;1.70;;;19.80;88.20;;;;;;5034501;28;20196;-88
2022/01/21 13:09:08;;;;;;;7.67;1.80;;;19.80;87.70;;;;;;5033877;28;20643;-86
2022/01/21 13:11:40;;;;;;;7.60;1.67;;;19.70;87.90;;;;;;5034834;28;20298;-84
2022/01/21 13:17:09;;;;;;;13.40;2.30;;;19.70;88.30;;;;;;5025006;28;20188;-85
2022/01/21 13:19:48;;;;;;;13.33;2.40;;;19.70;87.70;;;;;;5034196;28;20322;-80
2022/01/21 13:22:31;;;;;;;9.83;1.97;;;19.70;88.10;;;;;;5033886;28;20862;-89
2022/01/21 13:25:05;;;;;;;12.10;2.53;;;19.70;89.10;;;;;;5034089;28;20192;-82
2022/01/21 13:27:36;;;;;;;12.93;2.23;;;19.70;89.10;;;;;;5034402;28;20252;-85
2022/01/21 13:30:11;;;;;;;11.67;2.50;;;19.70;89.40;;;;;;5030039;28;20214;-85
2022/01/21 13:32:38;;;;;;;11.60;2.30;;;19.70;89.80;;;;;;5039036;28;20194;-87
2022/01/21 13:35:23;;;;;;;7.87;2.47;;;19.70;89.70;;;;;;5046861;28;20177;-89
2022/01/21 13:38:09;;;;;;;13.23;2.03;;;19.50;88.50;;;;;;5031303;28;20160;-88
2022/01/21 13:40:41;;;;;;;6.50;1.70;;;19.60;89.00;;;;;;5024271;28;20280;-85
2022/01/21 13:43:21;;;;;;;7.87;1.77;;;19.60;89.30;;;;;;5030150;28;20184;-80
2022/01/21 13:46:15;;;;;;;9.53;2.07;;;19.60;89.60;;;;;;5031542;28;20176;-84
2022/01/21 13:48:58;;;;;;;9.47;1.80;;;19.60;89.40;;;;;;5031666;28;20181;-80
2022/01/21 13:51:28;;;;;;;15.27;2.70;;;19.70;89.90;;;;;;5028036;28;20173;-84
2022/01/21 13:54:13;;;;;;;7.77;1.97;;;19.80;89.50;;;;;;5029951;28;20655;-82
2022/01/21 13:56:47;;;;;;;13.23;2.77;;;19.80;89.00;;;;;;5029743;28;20192;-85
2022/01/21 13:59:15;;;;;;;7.97;2.30;;;19.70;89.20;;;;;;5032248;28;20658;-84
2022/01/21 14:01:42;;;;;;;14.70;1.67;;;19.70;88.90;;;;;;5032380;28;20572;-82
2022/01/21 14:04:10;;;;;;;8.77;2.00;;;19.60;89.20;;;;;;5032035;28;20177;-82
2022/01/21 14:06:37;;;;;;;9.60;2.17;;;19.50;89.30;;;;;;5032785;28;20184;-81